createdAt,value
2022-08-21T00:01:14.699Z,100468.81
2022-08-21T00:03:48.325Z,100464.44
2022-08-21T00:06:24.983Z,100471.84
2022-08-21T00:09:07.022Z,100483.94
2022-08-21T00:11:42.784Z,100475.84
2022-08-21T00:14:14.715Z,100483.25
2022-08-21T00:16:52.422Z,100476.38
2022-08-21T00:19:31.074Z,100474.31
2022-08-21T00:22:10.363Z,100473.53
2022-08-21T00:24:53.107Z,100474.69
2022-08-21T00:27:34.985Z,100470.59
2022-08-21T00:30:22.811Z,100474.31
2022-08-21T00:32:56.271Z,100468.28
2022-08-21T00:35:36.094Z,100465.84
2022-08-21T00:38:12.275Z,100465.84
2022-08-21T00:40:57.381Z,100465.78
2022-08-21T00:43:38.707Z,100463.38
2022-08-21T00:46:17.427Z,100457.75
2022-08-21T00:49:01.214Z,100463.47
2022-08-21T00:51:52.093Z,100457.66
2022-08-21T00:54:30.862Z,100460.06
2022-08-21T00:57:13.373Z,100454.44
2022-08-21T00:59:49.592Z,100448.66
2022-08-21T01:02:26.394Z,100450.34
2022-08-21T01:05:02.650Z,100451.97
2022-08-21T01:07:38.895Z,100447.16
2022-08-21T01:10:23.905Z,100445.91
2022-08-21T01:13:10.998Z,100447.16
2022-08-21T01:15:51.163Z,100445.09
2022-08-21T01:18:32.127Z,100450.81
2022-08-21T01:21:40.725Z,100450.00
2022-08-21T01:24:23.796Z,100455.25
2022-08-21T01:26:59.023Z,100451.22
2022-08-21T01:29:47.561Z,100450.53
2022-08-21T01:32:20.827Z,100452.84
2022-08-21T01:34:52.247Z,100445.53
2022-08-21T01:37:30.008Z,100442.69
2022-08-21T01:40:08.011Z,100436.63
2022-08-21T01:42:44.393Z,100445.53
2022-08-21T01:45:26.835Z,100435.38
2022-08-21T01:48:02.207Z,100436.19
2022-08-21T01:50:38.191Z,100430.56
2022-08-21T01:53:16.557Z,100427.72
2022-08-21T01:55:55.593Z,100423.25
2022-08-21T01:58:31.640Z,100415.97
2022-08-21T02:01:07.742Z,100415.50
2022-08-21T02:03:43.101Z,100418.72
2022-08-21T02:06:18.948Z,100417.94
2022-08-21T02:08:53.183Z,100422.91
2022-08-21T02:11:29.010Z,100419.72
2022-08-21T02:14:00.467Z,100422.09
2022-08-21T02:16:35.512Z,100419.72
2022-08-21T02:19:09.785Z,100411.94
2022-08-21T02:21:46.875Z,100411.16
2022-08-21T02:24:22.680Z,100408.31
2022-08-21T02:27:00.667Z,100403.50
2022-08-21T02:29:36.348Z,100407.94
2022-08-21T02:32:15.259Z,100405.88
2022-08-21T02:34:54.094Z,100405.53
2022-08-21T02:37:29.762Z,100404.63
2022-08-21T02:40:10.465Z,100414.00
2022-08-21T02:42:49.266Z,100407.56
2022-08-21T02:45:28.972Z,100401.53
2022-08-21T02:48:19.177Z,100412.03
2022-08-21T02:51:01.735Z,100400.19
2022-08-21T02:53:37.853Z,100404.72
2022-08-21T02:56:17.130Z,100397.41
2022-08-21T02:58:56.707Z,100392.53
2022-08-21T03:01:35.041Z,100393.78
2022-08-21T03:04:17.874Z,100391.63
2022-08-21T03:06:53.166Z,100390.84
2022-08-21T03:09:29.205Z,100391.28
2022-08-21T03:12:07.883Z,100396.25
2022-08-21T03:14:47.254Z,100389.75
2022-08-21T03:17:29.724Z,100399.56
2022-08-21T03:20:05.045Z,100391.81
2022-08-21T03:22:48.490Z,100395.03
2022-08-21T03:25:40.173Z,100394.19
2022-08-21T03:28:20.945Z,100391.00
2022-08-21T03:30:57.262Z,100397.06
2022-08-21T03:33:33.891Z,100399.91
2022-08-21T03:36:13.903Z,100396.72
2022-08-21T03:38:49.472Z,100400.78
2022-08-21T03:41:27.435Z,100397.94
2022-08-21T03:44:05.986Z,100396.72
2022-08-21T03:46:44.101Z,100397.94
2022-08-21T03:49:22.465Z,100388.16
2022-08-21T03:51:59.661Z,100389.84
2022-08-21T03:54:42.064Z,100390.25
2022-08-21T03:57:20.391Z,100392.25
2022-08-21T03:59:53.734Z,100387.41
2022-08-21T04:02:23.025Z,100385.81
2022-08-21T04:04:56.842Z,100388.31
2022-08-21T04:07:40.200Z,100395.59
2022-08-21T04:10:19.183Z,100394.81
2022-08-21T04:12:57.723Z,100392.75
2022-08-21T04:15:36.524Z,100388.75
2022-08-21T04:18:18.220Z,100388.75
2022-08-21T04:21:04.952Z,100396.88
2022-08-21T04:23:43.972Z,100385.09
2022-08-21T04:26:17.453Z,100396.50
2022-08-21T04:28:58.493Z,100392.38
2022-08-21T04:31:38.097Z,100396.94
2022-08-21T04:34:15.256Z,100397.38
2022-08-21T04:36:52.855Z,100393.75
2022-08-21T04:39:30.563Z,100394.91
2022-08-21T04:42:10.036Z,100395.25
2022-08-21T04:44:51.146Z,100398.88
2022-08-21T04:47:25.086Z,100396.50
2022-08-21T04:50:32.570Z,100401.81
2022-08-21T04:53:16.949Z,100400.50
2022-08-21T04:55:54.069Z,100395.69
2022-08-21T04:58:29.291Z,100397.81
2022-08-21T05:01:09.748Z,100392.56
2022-08-21T05:03:45.739Z,100400.22
2022-08-21T05:06:28.989Z,100403.88
2022-08-21T05:09:02.895Z,100401.81
2022-08-21T05:11:39.919Z,100405.94
2022-08-21T05:14:18.229Z,100404.75
2022-08-21T05:16:52.684Z,100406.31
2022-08-21T05:19:32.026Z,100402.63
2022-08-21T05:22:10.371Z,100407.91
2022-08-21T05:24:48.964Z,100411.63
2022-08-21T05:27:33.916Z,100416.81
2022-08-21T05:30:13.093Z,100411.13
2022-08-21T05:32:57.516Z,100412.00
2022-08-21T05:35:42.937Z,100411.03
2022-08-21T05:38:20.026Z,100410.66
2022-08-21T05:40:55.848Z,100409.88
2022-08-21T05:43:31.505Z,100413.88
2022-08-21T05:46:08.709Z,100412.19
2022-08-21T05:48:43.617Z,100409.28
2022-08-21T05:51:25.073Z,100409.63
2022-08-21T05:54:03.821Z,100413.28
2022-08-21T05:56:37.445Z,100420.94
2022-08-21T05:59:14.242Z,100421.31
2022-08-21T06:01:55.562Z,100424.16
2022-08-21T06:04:30.937Z,100416.41
2022-08-21T06:07:09.637Z,100419.63
2022-08-21T06:09:43.107Z,100413.03
2022-08-21T06:12:19.366Z,100418.28
2022-08-21T06:15:01.000Z,100419.44
2022-08-21T06:17:34.058Z,100423.53
2022-08-21T06:20:14.885Z,100423.25
2022-08-21T06:22:53.174Z,100428.00
2022-08-21T06:25:30.225Z,100429.94
2022-08-21T06:28:13.993Z,100429.16
2022-08-21T06:30:45.186Z,100438.94
2022-08-21T06:33:21.046Z,100440.09
2022-08-21T06:35:53.768Z,100438.03
2022-08-21T06:38:35.762Z,100431.53
2022-08-21T06:41:10.264Z,100441.28
2022-08-21T06:43:53.034Z,100433.09
2022-08-21T06:46:28.214Z,100441.44
2022-08-21T06:49:06.240Z,100434.94
2022-08-21T06:51:42.269Z,100428.00
2022-08-21T06:54:16.282Z,100435.66
2022-08-21T06:56:54.122Z,100448.22
2022-08-21T06:59:30.181Z,100442.94
2022-08-21T07:02:05.846Z,100439.22
2022-08-21T07:04:43.598Z,100441.63
2022-08-21T07:07:19.687Z,100449.63
2022-08-21T07:10:02.328Z,100434.47
2022-08-21T07:12:37.943Z,100437.00
2022-08-21T07:15:20.138Z,100434.47
2022-08-21T07:18:04.044Z,100445.44
2022-08-21T07:20:39.403Z,100444.66
2022-08-21T07:23:38.486Z,100440.13
2022-08-21T07:26:21.516Z,100441.88
2022-08-21T07:29:04.164Z,100448.69
2022-08-21T07:31:36.457Z,100444.59
2022-08-21T07:34:09.438Z,100443.69
2022-08-21T07:36:47.155Z,100446.44
2022-08-21T07:39:23.088Z,100448.41
2022-08-21T07:41:55.842Z,100454.03
2022-08-21T07:44:29.066Z,100456.09
2022-08-21T07:47:05.773Z,100446.25
2022-08-21T07:49:43.610Z,100451.97
2022-08-21T07:52:19.246Z,100448.22
2022-08-21T07:54:51.862Z,100443.22
2022-08-21T07:57:28.489Z,100439.56
2022-08-21T08:00:08.055Z,100442.84
2022-08-21T08:02:55.265Z,100442.78
2022-08-21T08:05:38.237Z,100441.94
2022-08-21T08:08:13.928Z,100440.25
2022-08-21T08:10:52.456Z,100435.81
2022-08-21T08:13:34.313Z,100435.69
2022-08-21T08:16:10.585Z,100431.94
2022-08-21T08:18:47.409Z,100429.09
2022-08-21T08:21:25.541Z,100429.91
2022-08-21T08:24:18.543Z,100431.06
2022-08-21T08:26:58.176Z,100424.09
2022-08-21T08:29:36.418Z,100421.13
2022-08-21T08:32:12.941Z,100423.88
2022-08-21T08:34:45.806Z,100421.47
2022-08-21T08:37:21.315Z,100429.59
2022-08-21T08:40:05.448Z,100422.66
2022-08-21T08:42:43.750Z,100419.00
2022-08-21T08:45:22.929Z,100416.47
2022-08-21T08:48:03.395Z,100419.56
2022-08-21T08:51:00.021Z,100425.28
2022-08-21T08:53:41.680Z,100424.03
2022-08-21T08:56:15.205Z,100415.47
2022-08-21T08:58:51.256Z,100415.81
2022-08-21T09:01:27.138Z,100409.31
2022-08-21T09:04:22.642Z,100410.47
2022-08-21T09:07:06.319Z,100418.16
2022-08-21T09:10:17.530Z,100407.97
2022-08-21T09:13:12.668Z,100406.34
2022-08-21T09:15:59.522Z,100398.19
2022-08-21T09:18:38.902Z,100398.97
2022-08-21T09:21:27.283Z,100398.06
2022-08-21T09:24:16.202Z,100400.47
2022-08-21T09:27:01.044Z,100389.81
2022-08-21T09:29:41.748Z,100397.16
2022-08-21T09:32:24.050Z,100389.41
2022-08-21T09:35:21.234Z,100391.34
2022-08-21T09:38:07.513Z,100381.97
2022-08-21T09:40:52.985Z,100377.59
2022-08-21T09:43:31.253Z,100370.56
2022-08-21T09:46:13.663Z,100379.44
2022-08-21T09:48:56.521Z,100383.47
2022-08-21T09:51:35.190Z,100382.19
2022-08-21T09:54:23.753Z,100380.97
2022-08-21T09:57:33.643Z,100374.78
2022-08-21T10:00:26.291Z,100378.09
2022-08-21T10:03:25.521Z,100376.03
2022-08-21T10:06:10.020Z,100369.88
2022-08-21T10:08:48.866Z,100378.00
2022-08-21T10:11:34.405Z,100382.91
2022-08-21T10:14:25.289Z,100377.19
2022-08-21T10:17:13.845Z,100372.28
2022-08-21T10:19:54.442Z,100372.28
2022-08-21T10:22:44.383Z,100362.34
2022-08-21T10:25:31.936Z,100363.59
2022-08-21T10:28:15.102Z,100364.41
2022-08-21T10:31:00.534Z,100357.31
2022-08-21T10:33:50.428Z,100357.19
2022-08-21T10:36:32.067Z,100353.09
2022-08-21T10:39:36.114Z,100358.34
2022-08-21T10:42:42.074Z,100364.84
2022-08-21T10:45:26.615Z,100365.31
2022-08-21T10:48:09.676Z,100359.59
2022-08-21T10:50:55.420Z,100354.69
2022-08-21T10:53:45.701Z,100360.41
2022-08-21T10:56:23.702Z,100356.38
2022-08-21T10:59:31.210Z,100355.16
2022-08-21T11:02:16.615Z,100358.94
2022-08-21T11:05:07.840Z,100360.50
2022-08-21T11:07:50.292Z,100351.94
2022-08-21T11:10:58.036Z,100348.97
2022-08-21T11:13:55.920Z,100341.19
2022-08-21T11:17:21.419Z,100332.63
2022-08-21T11:20:08.615Z,100331.81
2022-08-21T11:23:22.953Z,100321.19
2022-08-21T11:26:10.831Z,100326.91
2022-08-21T11:28:52.054Z,100326.47
2022-08-21T11:31:25.560Z,100326.00
2022-08-21T11:34:30.021Z,100322.34
2022-08-21T11:37:13.744Z,100315.03
2022-08-21T11:40:01.524Z,100304.75
2022-08-21T11:42:56.576Z,100308.06
2022-08-21T11:45:38.783Z,100309.75
2022-08-21T11:48:18.075Z,100304.97
2022-08-21T11:50:59.852Z,100298.44
2022-08-21T11:53:49.840Z,100306.09
2022-08-21T11:56:37.397Z,100305.44
2022-08-21T11:59:14.935Z,100294.81
2022-08-21T12:01:57.401Z,100299.72
2022-08-21T12:04:37.537Z,100304.28
2022-08-21T12:07:41.356Z,100303.13
2022-08-21T12:10:22.397Z,100297.44
2022-08-21T12:12:56.483Z,100292.97
2022-08-21T12:15:32.736Z,100293.41
2022-08-21T12:18:12.512Z,100289.31
2022-08-21T12:20:59.223Z,100285.69
2022-08-21T12:24:04.003Z,100286.59
2022-08-21T12:26:58.119Z,100273.88
2022-08-21T12:29:46.751Z,100278.81
2022-08-21T12:32:28.662Z,100275.59
2022-08-21T12:35:25.412Z,100268.06
2022-08-21T12:38:09.948Z,100258.03
2022-08-21T12:41:03.327Z,100262.00
2022-08-21T12:43:45.707Z,100256.19
2022-08-21T12:46:45.383Z,100249.78
2022-08-21T12:49:49.647Z,100242.47
2022-08-21T12:52:40.972Z,100240.41
2022-08-21T12:55:32.701Z,100250.25
2022-08-21T12:58:09.231Z,100236.41
2022-08-21T13:00:52.959Z,100238.59
2022-08-21T13:03:27.158Z,100236.06
2022-08-21T13:06:03.288Z,100237.09
2022-08-21T13:08:41.761Z,100232.31
2022-08-21T13:11:32.448Z,100233.91
2022-08-21T13:14:14.979Z,100217.66
2022-08-21T13:17:00.733Z,100230.38
2022-08-21T13:19:32.925Z,100222.59
2022-08-21T13:22:30.622Z,100223.72
2022-08-21T13:25:18.288Z,100210.69
2022-08-21T13:28:12.744Z,100212.63
2022-08-21T13:30:53.147Z,100215.97
2022-08-21T13:33:38.020Z,100214.34
2022-08-21T13:36:47.970Z,100205.09
2022-08-21T13:39:26.279Z,100206.72
2022-08-21T13:42:06.115Z,100208.31
2022-08-21T13:44:47.630Z,100207.38
2022-08-21T13:47:24.731Z,100203.25
2022-08-21T13:50:03.593Z,100206.13
2022-08-21T13:52:49.691Z,100215.16
2022-08-21T13:55:26.242Z,100211.03
2022-08-21T13:58:09.446Z,100204.84
2022-08-21T14:00:54.922Z,100195.72
2022-08-21T14:03:44.019Z,100199.13
2022-08-21T14:06:22.205Z,100197.91
2022-08-21T14:09:30.899Z,100191.25
2022-08-21T14:12:23.444Z,100185.06
2022-08-21T14:15:00.329Z,100178.69
2022-08-21T14:17:44.119Z,100178.94
2022-08-21T14:20:42.555Z,100175.59
2022-08-21T14:23:28.288Z,100174.25
2022-08-21T14:26:01.201Z,100173.09
2022-08-21T14:28:42.426Z,100175.16
2022-08-21T14:31:22.510Z,100167.03
2022-08-21T14:33:59.568Z,100162.13
2022-08-21T14:36:38.163Z,100167.38
2022-08-21T14:39:18.864Z,100158.94
2022-08-21T14:41:50.723Z,100158.34
2022-08-21T14:44:26.547Z,100146.47
2022-08-21T14:47:05.167Z,100153.44
2022-08-21T14:49:41.084Z,100149.66
2022-08-21T14:52:19.237Z,100148.16
2022-08-21T14:54:59.929Z,100147.34
2022-08-21T14:57:40.156Z,100135.78
2022-08-21T15:00:36.218Z,100135.31
2022-08-21T15:03:17.877Z,100141.75
2022-08-21T15:05:59.698Z,100136.59
2022-08-21T15:08:44.308Z,100136.13
2022-08-21T15:11:41.750Z,100124.94
2022-08-21T15:14:27.622Z,100130.53
2022-08-21T15:17:04.648Z,100132.72
2022-08-21T15:19:43.944Z,100132.56
2022-08-21T15:22:22.968Z,100123.56
2022-08-21T15:25:03.772Z,100124.00
2022-08-21T15:27:37.716Z,100130.84
2022-08-21T15:30:18.537Z,100132.00
2022-08-21T15:33:01.721Z,100134.84
2022-08-21T15:35:35.816Z,100129.94
2022-08-21T15:38:19.138Z,100130.28
2022-08-21T15:40:54.135Z,100135.72
2022-08-21T15:43:42.476Z,100126.50
2022-08-21T15:46:25.875Z,100121.22
2022-08-21T15:49:07.135Z,100122.34
2022-08-21T15:51:43.629Z,100126.34
2022-08-21T15:54:21.465Z,100119.94
2022-08-21T15:57:00.250Z,100119.72
2022-08-21T15:59:41.752Z,100120.81
2022-08-21T16:02:24.444Z,100112.25
2022-08-21T16:04:59.323Z,100118.44
2022-08-21T16:07:35.141Z,100112.25
2022-08-21T16:10:16.803Z,100108.47
2022-08-21T16:13:02.077Z,100116.59
2022-08-21T16:15:40.237Z,100111.78
2022-08-21T16:18:21.120Z,100112.72
2022-08-21T16:21:07.928Z,100115.59
2022-08-21T16:23:41.809Z,100115.94
2022-08-21T16:26:23.630Z,100114.16
2022-08-21T16:29:04.624Z,100122.31
2022-08-21T16:31:39.918Z,100119.56
2022-08-21T16:34:22.432Z,100113.84
2022-08-21T16:37:04.095Z,100108.94
2022-08-21T16:39:42.914Z,100114.53
2022-08-21T16:42:21.797Z,100111.53
2022-08-21T16:44:59.584Z,100115.50
2022-08-21T16:47:32.543Z,100112.19
2022-08-21T16:50:10.096Z,100112.19
2022-08-21T16:52:45.338Z,100111.88
2022-08-21T16:55:15.874Z,100112.66
2022-08-21T16:57:59.594Z,100111.53
2022-08-21T17:00:30.079Z,100120.44
2022-08-21T17:03:09.442Z,100120.09
2022-08-21T17:05:39.527Z,100122.03
2022-08-21T17:08:12.687Z,100116.31
2022-08-21T17:10:51.143Z,100124.88
2022-08-21T17:13:28.043Z,100118.38
2022-08-21T17:16:06.606Z,100113.09
2022-08-21T17:18:43.030Z,100107.88
2022-08-21T17:21:25.233Z,100115.97
2022-08-21T17:24:00.919Z,100113.59
2022-08-21T17:26:39.841Z,100113.44
2022-08-21T17:29:23.310Z,100114.25
2022-08-21T17:31:59.716Z,100111.19
2022-08-21T17:34:31.896Z,100110.38
2022-08-21T17:37:05.850Z,100108.81
2022-08-21T17:39:42.144Z,100109.13
2022-08-21T17:42:21.468Z,100105.81
2022-08-21T17:45:00.775Z,100100.44
2022-08-21T17:47:33.865Z,100111.06
2022-08-21T17:50:13.466Z,100101.66
2022-08-21T17:52:50.986Z,100105.59
2022-08-21T17:55:24.953Z,100101.63
2022-08-21T17:57:58.808Z,100108.47
2022-08-21T18:00:39.033Z,100120.25
2022-08-21T18:03:19.922Z,100114.88
2022-08-21T18:05:56.945Z,100117.72
2022-08-21T18:08:36.523Z,100123.09
2022-08-21T18:11:23.829Z,100113.06
2022-08-21T18:14:06.727Z,100116.03
2022-08-21T18:16:38.177Z,100128.16
2022-08-21T18:19:18.175Z,100128.47
2022-08-21T18:21:53.459Z,100129.47
2022-08-21T18:24:31.338Z,100136.31
2022-08-21T18:27:18.736Z,100139.97
2022-08-21T18:29:53.633Z,100131.88
2022-08-21T18:32:31.522Z,100145.50
2022-08-21T18:35:06.754Z,100138.19
2022-08-21T18:37:47.392Z,100149.63
2022-08-21T18:40:18.271Z,100150.91
2022-08-21T18:42:56.776Z,100142.31
2022-08-21T18:45:37.014Z,100147.25
2022-08-21T18:48:09.787Z,100145.19
2022-08-21T18:50:51.956Z,100152.03
2022-08-21T18:53:29.085Z,100148.03
2022-08-21T18:56:05.532Z,100152.28
2022-08-21T18:58:42.627Z,100154.69
2022-08-21T19:01:21.959Z,100154.34
2022-08-21T19:03:59.735Z,100157.53
2022-08-21T19:06:46.195Z,100157.31
2022-08-21T19:09:23.902Z,100164.19
2022-08-21T19:11:55.130Z,100167.19
2022-08-21T19:14:35.027Z,100168.75
2022-08-21T19:17:15.990Z,100167.19
2022-08-21T19:19:52.067Z,100178.47
2022-08-21T19:22:30.076Z,100174.47
2022-08-21T19:25:06.374Z,100182.25
2022-08-21T19:27:44.740Z,100176.41
2022-08-21T19:30:24.078Z,100196.28
2022-08-21T19:33:03.155Z,100175.84
2022-08-21T19:35:42.454Z,100180.41
2022-08-21T19:38:15.568Z,100182.94
2022-08-21T19:40:52.297Z,100189.91
2022-08-21T19:43:33.335Z,100192.44
2022-08-21T19:46:13.619Z,100199.75
2022-08-21T19:48:46.662Z,100206.06
2022-08-21T19:51:26.097Z,100208.91
2022-08-21T19:54:03.379Z,100210.97
2022-08-21T19:56:41.774Z,100219.56
2022-08-21T19:59:18.640Z,100219.09
2022-08-21T20:02:06.400Z,100229.41
2022-08-21T20:04:53.276Z,100227.47
2022-08-21T20:07:33.329Z,100224.59
2022-08-21T20:10:10.940Z,100218.53
2022-08-21T20:12:51.725Z,100238.44
2022-08-21T20:15:27.380Z,100229.41
2022-08-21T20:18:09.296Z,100233.50
2022-08-21T20:20:44.909Z,100237.50
2022-08-21T20:23:17.303Z,100230.66
2022-08-21T20:26:08.029Z,100238.91
2022-08-21T20:31:47.852Z,100245.84
2022-08-21T20:34:23.028Z,100250.00
2022-08-21T20:37:05.405Z,100240.75
2022-08-21T20:39:44.697Z,100252.50
2022-08-21T20:42:22.144Z,100259.84
2022-08-21T20:45:08.275Z,100252.84
2022-08-21T20:47:47.446Z,100250.00
2022-08-21T20:50:37.017Z,100246.47
2022-08-21T20:53:25.558Z,100248.03
2022-08-21T20:56:14.704Z,100249.63
2022-08-21T20:59:13.861Z,100250.91
2022-08-21T21:01:53.113Z,100261.19
2022-08-21T21:04:44.374Z,100256.75
2022-08-21T21:07:33.083Z,100248.28
2022-08-21T21:10:12.240Z,100244.16
2022-08-21T21:12:54.568Z,100244.16
2022-08-21T21:15:40.222Z,100243.00
2022-08-21T21:18:29.480Z,100243.81
2022-08-21T21:21:17.107Z,100234.00
2022-08-21T21:24:09.736Z,100247.03
2022-08-21T21:27:11.914Z,100241.31
2022-08-21T21:29:49.831Z,100249.44
2022-08-21T21:32:27.633Z,100246.91
2022-08-21T21:35:04.267Z,100255.16
2022-08-21T21:37:55.216Z,100249.09
2022-08-21T21:40:40.594Z,100249.09
2022-08-21T21:43:33.090Z,100254.91
2022-08-21T21:46:31.445Z,100251.94
2022-08-21T21:49:15.393Z,100262.59
2022-08-21T21:52:00.528Z,100270.78
2022-08-21T21:54:50.475Z,100264.66
2022-08-21T21:57:49.642Z,100268.41
2022-08-21T22:00:33.346Z,100283.38
2022-08-21T22:03:09.617Z,100285.97
2022-08-21T22:06:06.407Z,100284.72
2022-08-21T22:09:05.269Z,100286.78
2022-08-21T22:12:49.692Z,100294.56
2022-08-21T22:15:28.112Z,100300.75
2022-08-21T22:18:16.367Z,100302.69
2022-08-21T22:21:00.279Z,100308.97
2022-08-21T22:23:41.476Z,100307.69
2022-08-21T22:26:22.345Z,100307.25
2022-08-21T22:29:05.923Z,100309.31
2022-08-21T22:31:41.706Z,100302.47
2022-08-21T22:34:19.591Z,100305.31
2022-08-21T22:37:02.373Z,100306.09
2022-08-21T22:40:05.313Z,100312.19
2022-08-21T22:42:47.010Z,100304.41
2022-08-21T22:45:29.842Z,100301.19
2022-08-21T22:48:22.720Z,100295.16
2022-08-21T22:51:18.714Z,100298.00
2022-08-21T22:53:58.054Z,100303.25
2022-08-21T22:56:37.934Z,100301.78
2022-08-21T22:59:31.997Z,100296.88
2022-08-21T23:02:34.316Z,100298.81
2022-08-21T23:05:21.146Z,100305.44
2022-08-21T23:08:01.972Z,100303.81
2022-08-21T23:10:51.573Z,100298.44
2022-08-21T23:13:32.887Z,100300.63
2022-08-21T23:16:47.487Z,100304.28
2022-08-21T23:19:25.327Z,100300.16
2022-08-21T23:22:09.447Z,100307.16
2022-08-21T23:25:06.544Z,100312.06
2022-08-21T23:27:56.204Z,100307.63
2022-08-21T23:31:05.037Z,100305.09
2022-08-21T23:33:56.026Z,100306.78
2022-08-21T23:37:12.381Z,100299.03
2022-08-21T23:40:17.055Z,100304.28
2022-08-21T23:43:19.045Z,100306.66
2022-08-21T23:46:11.332Z,100312.06
2022-08-21T23:52:39.551Z,100300.28
2022-08-21T23:55:35.022Z,100303.50
2022-08-21T23:58:19.686Z,100298.09
